Terminal Aerodrome Forecast
Issued by NWS Rapid City, SD

Home | Current Version | Previous Version | Graphics & Text | Print | Product List | Glossary On
Versions: 1 2 3 4 5 6 7 8 9 10 11 12 13 14 15
000
FTUS43 KUNR 251724
TAFRAP
TAF
KRAP 251724Z 2518/2618 34015G35KT P6SM BKN060
      TEMPO 2519/2523 -TSRA BKN060CB
     FM260000 33010KT P6SM SCT100=

USA.gov is the U.S. government's official web portal to all federal, state and local government web resources and services.